createdAt,value
2018-06-23T00:00:33.692Z,1014.81
2018-06-23T00:01:33.694Z,1014.90
2018-06-23T00:02:33.693Z,1014.84
2018-06-23T00:03:33.690Z,1014.84
2018-06-23T00:04:33.688Z,1014.84
2018-06-23T00:05:33.685Z,1014.86
2018-06-23T00:06:33.679Z,1014.91
2018-06-23T00:07:33.681Z,1014.86
2018-06-23T00:08:33.680Z,1014.87
2018-06-23T00:09:33.676Z,1014.83
2018-06-23T00:10:33.675Z,1014.84
2018-06-23T00:11:33.681Z,1014.83
2018-06-23T00:12:33.664Z,1014.88
2018-06-23T00:13:33.665Z,1014.79
2018-06-23T00:14:33.666Z,1014.83
2018-06-23T00:15:33.665Z,1014.71
2018-06-23T00:16:33.663Z,1014.77
2018-06-23T00:17:33.660Z,1014.79
2018-06-23T00:18:33.658Z,1014.79
2018-06-23T00:19:33.655Z,1014.76
2018-06-23T00:20:33.653Z,1014.75
2018-06-23T00:21:33.652Z,1014.77
2018-06-23T00:22:33.649Z,1014.76
2018-06-23T00:23:33.656Z,1014.70
2018-06-23T00:24:33.645Z,1014.77
2018-06-23T00:25:33.642Z,1014.56
2018-06-23T00:26:33.641Z,1014.69
2018-06-23T00:27:33.639Z,1014.80
2018-06-23T00:28:33.639Z,1014.76
2018-06-23T00:29:33.638Z,1014.76
2018-06-23T00:30:33.632Z,1014.77
2018-06-23T00:31:33.631Z,1014.70
2018-06-23T00:32:33.627Z,1014.72
2018-06-23T00:33:33.626Z,1014.75
2018-06-23T00:34:33.624Z,1014.70
2018-06-23T00:35:33.624Z,1014.73
2018-06-23T00:36:33.617Z,1014.71
2018-06-23T00:37:33.617Z,1014.72
2018-06-23T00:38:33.618Z,1014.72
2018-06-23T00:39:33.610Z,1014.69
2018-06-23T00:40:33.609Z,1014.64
2018-06-23T00:41:33.610Z,1014.64
2018-06-23T00:42:33.606Z,1014.64
2018-06-23T00:43:33.604Z,1014.66
2018-06-23T00:44:33.608Z,1014.62
2018-06-23T00:45:33.599Z,1014.74
2018-06-23T00:46:33.601Z,1014.64
2018-06-23T00:47:33.596Z,1014.18
2018-06-23T00:48:33.593Z,1014.73
2018-06-23T00:49:33.589Z,1014.72
2018-06-23T00:50:33.588Z,1014.72
2018-06-23T00:51:33.587Z,1014.76
2018-06-23T00:52:33.583Z,1014.73
2018-06-23T00:53:33.582Z,1014.70
2018-06-23T00:54:33.580Z,1014.70
2018-06-23T00:55:33.576Z,1014.80
2018-06-23T00:56:33.574Z,1014.66
2018-06-23T00:57:33.571Z,1014.78
2018-06-23T00:58:33.570Z,1014.81
2018-06-23T00:59:33.569Z,1014.78
2018-06-23T01:00:33.565Z,1014.74
2018-06-23T01:01:33.562Z,1014.78
2018-06-23T01:02:33.562Z,1014.72
2018-06-23T01:03:33.558Z,1014.74
2018-06-23T01:04:33.555Z,1014.79
2018-06-23T01:05:33.557Z,1014.82
2018-06-23T01:06:33.550Z,1014.82
2018-06-23T01:07:33.548Z,1014.77
2018-06-23T01:08:33.549Z,1014.70
2018-06-23T01:09:33.543Z,1014.77
2018-06-23T01:10:33.542Z,1014.78
2018-06-23T01:11:33.541Z,1014.79
2018-06-23T01:12:33.537Z,1014.77
2018-06-23T01:13:33.532Z,1014.72
2018-06-23T01:14:33.533Z,1014.71
2018-06-23T01:15:33.530Z,1014.78
2018-06-23T01:16:33.527Z,1014.66
2018-06-23T01:17:33.533Z,1014.77
2018-06-23T01:18:33.523Z,1014.78
2018-06-23T01:19:33.519Z,1014.75
2018-06-23T01:20:33.519Z,1014.72
2018-06-23T01:21:33.516Z,1014.72
2018-06-23T01:22:33.513Z,1014.68
2018-06-23T01:23:33.512Z,1014.67
2018-06-23T01:24:33.507Z,1014.71
2018-06-23T01:25:33.503Z,1014.69
2018-06-23T01:26:33.505Z,1014.73
2018-06-23T01:27:33.501Z,1014.71
2018-06-23T01:28:33.505Z,1014.70
2018-06-23T01:29:33.500Z,1014.71
2018-06-23T01:30:33.494Z,1014.72
2018-06-23T01:31:33.491Z,1014.69
2018-06-23T01:32:33.489Z,1014.72
2018-06-23T01:33:33.486Z,1014.73
2018-06-23T01:34:33.484Z,1014.73
2018-06-23T01:35:33.487Z,1014.59
2018-06-23T01:36:33.482Z,1014.70
2018-06-23T01:37:33.476Z,1014.61
2018-06-23T01:38:33.484Z,1014.61
2018-06-23T01:39:33.478Z,1014.63
2018-06-23T01:40:33.467Z,1014.66
2018-06-23T01:41:33.467Z,1014.65
2018-06-23T01:42:33.466Z,1014.60
2018-06-23T01:43:33.462Z,1014.52
2018-06-23T01:44:33.462Z,1014.57
2018-06-23T01:45:33.458Z,1014.58
2018-06-23T01:46:33.459Z,1014.57
2018-06-23T01:47:33.453Z,1014.51
2018-06-23T01:48:33.449Z,1014.53
2018-06-23T01:49:33.451Z,1014.57
2018-06-23T01:50:33.447Z,1014.54
2018-06-23T01:51:33.444Z,1014.51
2018-06-23T01:52:33.440Z,1014.46
2018-06-23T01:53:33.444Z,1014.46
2018-06-23T01:54:33.436Z,1014.53
2018-06-23T01:55:33.432Z,1014.53
2018-06-23T01:56:33.429Z,1014.61
2018-06-23T01:57:33.428Z,1014.46
2018-06-23T01:58:33.428Z,1014.55
2018-06-23T01:59:33.424Z,1014.58
2018-06-23T02:00:33.420Z,1014.48
2018-06-23T02:01:33.420Z,1014.57
2018-06-23T02:02:33.415Z,1014.55
2018-06-23T02:03:33.413Z,1014.50
2018-06-23T02:04:33.410Z,1014.53
2018-06-23T02:05:33.408Z,1014.49
2018-06-23T02:06:33.406Z,1014.48
2018-06-23T02:07:33.403Z,1014.51
2018-06-23T02:08:33.400Z,1014.59
2018-06-23T02:09:33.398Z,1014.57
2018-06-23T02:10:33.395Z,1014.45
2018-06-23T02:11:33.395Z,1014.57
2018-06-23T02:12:33.394Z,1014.47
2018-06-23T02:13:33.388Z,1014.57
2018-06-23T02:14:33.386Z,1014.53
2018-06-23T02:15:33.384Z,1014.59
2018-06-23T02:16:33.381Z,1014.63
2018-06-23T02:17:33.378Z,1014.60
2018-06-23T02:18:33.377Z,1014.60
2018-06-23T02:19:33.375Z,1014.64
2018-06-23T02:20:33.372Z,1014.67
2018-06-23T02:21:33.371Z,1014.63
2018-06-23T02:22:33.366Z,1014.61
2018-06-23T02:23:33.368Z,1014.66
2018-06-23T02:24:33.361Z,1014.62
2018-06-23T02:25:33.360Z,1014.59
2018-06-23T02:26:33.358Z,1014.57
2018-06-23T02:27:33.355Z,1014.63
2018-06-23T02:28:33.352Z,1014.61
2018-06-23T02:29:33.350Z,1014.59
2018-06-23T02:30:33.349Z,1014.66
2018-06-23T02:31:33.346Z,1014.69
2018-06-23T02:32:33.341Z,1014.60
2018-06-23T02:33:33.340Z,1014.70
2018-06-23T02:34:33.339Z,1014.69
2018-06-23T02:35:33.337Z,1014.75
2018-06-23T02:36:33.333Z,1014.69
2018-06-23T02:37:33.333Z,1014.70
2018-06-23T02:38:33.330Z,1014.67
2018-06-23T02:39:33.327Z,1014.72
2018-06-23T02:40:33.327Z,1014.42
2018-06-23T02:41:33.321Z,1014.73
2018-06-23T02:42:33.373Z,1014.74
2018-06-23T02:43:33.315Z,1014.66
2018-06-23T02:44:33.315Z,1014.71
2018-06-23T02:45:33.310Z,1014.80
2018-06-23T02:46:33.314Z,1014.74
2018-06-23T02:47:33.310Z,1014.72
2018-06-23T02:48:33.304Z,1014.70
2018-06-23T02:49:33.301Z,1014.68
2018-06-23T02:50:33.300Z,1014.66
2018-06-23T02:51:33.296Z,1014.53
2018-06-23T02:52:33.300Z,1014.64
2018-06-23T02:53:33.298Z,1014.64
2018-06-23T02:54:33.324Z,1014.70
2018-06-23T02:55:33.286Z,1014.67
2018-06-23T02:56:33.284Z,1014.72
2018-06-23T02:57:33.282Z,1014.63
2018-06-23T02:58:33.282Z,1014.64
2018-06-23T02:59:33.277Z,1014.66
2018-06-23T03:00:33.277Z,1014.65
2018-06-23T03:01:33.271Z,1014.68
2018-06-23T03:02:33.275Z,1014.67
2018-06-23T03:03:33.264Z,1014.75
2018-06-23T03:04:33.263Z,1014.73
2018-06-23T03:05:33.261Z,1014.76
2018-06-23T03:06:33.260Z,1014.75
2018-06-23T03:07:33.257Z,1014.81
2018-06-23T03:08:33.252Z,1014.76
2018-06-23T03:09:33.250Z,1014.80
2018-06-23T03:10:33.249Z,1014.84
2018-06-23T03:11:33.242Z,1014.78
2018-06-23T03:12:33.244Z,1014.83
2018-06-23T03:13:33.238Z,1014.81
2018-06-23T03:14:33.239Z,1014.82
2018-06-23T03:15:33.237Z,1014.80
2018-06-23T03:16:33.234Z,1014.84
2018-06-23T03:17:33.232Z,1014.73
2018-06-23T03:18:33.233Z,1014.85
2018-06-23T03:19:33.226Z,1014.84
2018-06-23T03:20:33.223Z,1014.88
2018-06-23T03:21:33.221Z,1014.82
2018-06-23T03:22:33.218Z,1014.81
2018-06-23T03:23:33.218Z,1014.84
2018-06-23T03:24:33.216Z,1014.85
2018-06-23T03:25:33.209Z,1014.82
2018-06-23T03:26:33.205Z,1014.85
2018-06-23T03:27:33.208Z,1014.87
2018-06-23T03:28:33.203Z,1014.87
2018-06-23T03:29:33.200Z,1014.84
2018-06-23T03:30:33.198Z,1014.87
2018-06-23T03:31:33.198Z,1014.87
2018-06-23T03:32:33.191Z,1014.84
2018-06-23T03:33:33.190Z,1014.83
2018-06-23T03:34:33.187Z,1014.85
2018-06-23T03:35:33.184Z,1014.84
2018-06-23T03:36:33.181Z,1014.89
2018-06-23T03:37:33.179Z,1014.89
2018-06-23T03:38:33.175Z,1014.89
2018-06-23T03:39:33.174Z,1014.89
2018-06-23T03:40:33.171Z,1014.87
2018-06-23T03:41:33.168Z,1014.87
2018-06-23T03:42:33.165Z,1014.90
2018-06-23T03:43:33.163Z,1014.86
2018-06-23T03:44:33.159Z,1014.92
2018-06-23T03:45:33.177Z,1014.86
2018-06-23T03:46:33.165Z,1014.84
2018-06-23T03:47:33.153Z,1014.80
2018-06-23T03:48:33.149Z,1014.88
2018-06-23T03:49:33.145Z,1014.83
2018-06-23T03:50:33.146Z,1014.80
2018-06-23T03:51:33.143Z,1014.82
2018-06-23T03:52:33.139Z,1014.85
2018-06-23T03:53:33.136Z,1014.81
2018-06-23T03:54:33.134Z,1014.82
2018-06-23T03:55:33.131Z,1014.77
2018-06-23T03:56:33.131Z,1014.81
2018-06-23T03:57:33.125Z,1014.83
2018-06-23T03:58:33.124Z,1014.90
2018-06-23T03:59:33.122Z,1014.82
2018-06-23T04:00:33.117Z,1014.87
2018-06-23T04:01:33.117Z,1014.85
2018-06-23T04:02:33.114Z,1014.87
2018-06-23T04:03:33.111Z,1014.88
2018-06-23T04:04:33.107Z,1014.92
2018-06-23T04:05:33.105Z,1014.89
2018-06-23T04:06:33.105Z,1014.92
2018-06-23T04:07:33.100Z,1014.90
2018-06-23T04:08:33.098Z,1014.91
2018-06-23T04:09:33.095Z,1014.91
2018-06-23T04:10:33.092Z,1014.87
2018-06-23T04:11:33.141Z,1014.82
2018-06-23T04:12:33.088Z,1014.85
2018-06-23T04:13:33.084Z,1014.84
2018-06-23T04:14:33.083Z,1014.81
2018-06-23T04:15:33.080Z,1014.82
2018-06-23T04:16:33.077Z,1014.80
2018-06-23T04:17:33.075Z,1014.84
2018-06-23T04:18:33.073Z,1014.84
2018-06-23T04:19:33.070Z,1014.76
2018-06-23T04:20:33.069Z,1014.70
2018-06-23T04:21:33.064Z,1014.76
2018-06-23T04:22:33.061Z,1014.77
2018-06-23T04:23:33.065Z,1014.72
2018-06-23T04:24:33.056Z,1014.77
2018-06-23T04:25:33.056Z,1014.73
2018-06-23T04:26:33.053Z,1014.69
2018-06-23T04:27:33.050Z,1014.69
2018-06-23T04:28:33.053Z,1014.68
2018-06-23T04:29:33.045Z,1014.63
2018-06-23T04:30:33.044Z,1014.70
2018-06-23T04:31:33.042Z,1014.65
2018-06-23T04:32:33.038Z,1014.72
2018-06-23T04:33:33.036Z,1014.68
2018-06-23T04:34:33.037Z,1014.64
2018-06-23T04:35:33.031Z,1014.74
2018-06-23T04:36:33.028Z,1014.74
2018-06-23T04:37:33.028Z,1014.70
2018-06-23T04:38:33.022Z,1014.69
2018-06-23T04:39:33.022Z,1014.59
2018-06-23T04:40:33.017Z,1014.66
2018-06-23T04:41:33.016Z,1014.68
2018-06-23T04:42:33.014Z,1014.63
2018-06-23T04:43:33.013Z,1014.59
2018-06-23T04:44:33.010Z,1014.64
2018-06-23T04:45:33.007Z,1014.67
2018-06-23T04:46:33.009Z,1014.57
2018-06-23T04:47:33.003Z,1014.64
2018-06-23T04:48:33.003Z,1014.61
2018-06-23T04:49:32.999Z,1014.61
2018-06-23T04:50:32.999Z,1014.68
2018-06-23T04:51:32.995Z,1014.70
2018-06-23T04:52:32.995Z,1014.70
2018-06-23T04:53:32.990Z,1014.68
2018-06-23T04:54:32.987Z,1014.67
2018-06-23T04:55:32.986Z,1014.67
2018-06-23T04:56:32.983Z,1014.70
2018-06-23T04:57:32.984Z,1014.76
2018-06-23T04:58:32.978Z,1014.77
2018-06-23T04:59:32.984Z,1014.77
2018-06-23T05:00:33.054Z,1014.77
2018-06-23T05:01:32.973Z,1014.79
2018-06-23T05:02:32.971Z,1014.80
2018-06-23T05:03:32.972Z,1014.84
2018-06-23T05:04:32.967Z,1014.77
2018-06-23T05:05:32.964Z,1014.82
2018-06-23T05:06:32.962Z,1014.77
2018-06-23T05:07:32.961Z,1014.79
2018-06-23T05:08:32.957Z,1014.85
2018-06-23T05:09:32.954Z,1014.85
2018-06-23T05:10:32.954Z,1014.81
2018-06-23T05:11:32.953Z,1014.86
2018-06-23T05:12:32.956Z,1014.84
2018-06-23T05:13:32.948Z,1014.81
2018-06-23T05:14:32.951Z,1014.86
2018-06-23T05:15:32.944Z,1014.82
2018-06-23T05:16:32.941Z,1014.81
2018-06-23T05:17:32.940Z,1014.82
2018-06-23T05:18:32.942Z,1014.87
2018-06-23T05:19:32.936Z,1014.86
2018-06-23T05:20:32.962Z,1014.85
2018-06-23T05:21:32.932Z,1014.85
2018-06-23T05:22:32.929Z,1014.82
2018-06-23T05:23:32.933Z,1014.77
2018-06-23T05:24:32.924Z,1014.79
2018-06-23T05:25:32.924Z,1014.75
2018-06-23T05:26:32.923Z,1014.77
2018-06-23T05:27:32.920Z,1014.77
2018-06-23T05:28:32.915Z,1014.73
2018-06-23T05:29:32.915Z,1014.77
2018-06-23T05:30:32.914Z,1014.80
2018-06-23T05:31:32.912Z,1014.79
2018-06-23T05:32:32.909Z,1014.72
2018-06-23T05:33:32.907Z,1014.68
2018-06-23T05:34:32.908Z,1014.70
2018-06-23T05:35:32.904Z,1014.77
2018-06-23T05:36:32.901Z,1014.81
2018-06-23T05:37:32.899Z,1014.76
2018-06-23T05:38:32.900Z,1014.74
2018-06-23T05:39:32.898Z,1014.82
2018-06-23T05:40:32.893Z,1014.65
2018-06-23T05:41:32.890Z,1014.66
2018-06-23T05:42:32.892Z,1014.69
2018-06-23T05:43:32.889Z,1014.75
2018-06-23T05:44:32.887Z,1014.71
2018-06-23T05:45:32.887Z,1014.69
2018-06-23T05:46:32.884Z,1014.68
2018-06-23T05:47:32.882Z,1014.72
2018-06-23T05:48:32.887Z,1014.68
2018-06-23T05:49:32.878Z,1014.76
2018-06-23T05:50:32.876Z,1014.77
2018-06-23T05:51:32.874Z,1014.73
2018-06-23T05:52:32.872Z,1014.75
2018-06-23T05:53:32.871Z,1014.75
2018-06-23T05:54:32.868Z,1014.77
2018-06-23T05:55:32.870Z,1014.73
2018-06-23T05:56:32.867Z,1014.77
2018-06-23T05:57:32.865Z,1014.79
2018-06-23T05:58:32.866Z,1014.77
2018-06-23T05:59:32.863Z,1014.82
2018-06-23T06:00:32.859Z,1014.80
2018-06-23T06:01:32.863Z,1014.77
2018-06-23T06:02:32.859Z,1014.78
2018-06-23T06:03:32.858Z,1014.77
2018-06-23T06:04:32.855Z,1014.67
2018-06-23T06:05:32.852Z,1014.78
2018-06-23T06:06:32.853Z,1014.76
2018-06-23T06:07:32.848Z,1014.78
2018-06-23T06:08:32.852Z,1014.79
2018-06-23T06:09:32.847Z,1014.74
2018-06-23T06:10:32.847Z,1014.75
2018-06-23T06:11:32.844Z,1014.75
2018-06-23T06:12:32.846Z,1014.70
2018-06-23T06:13:32.841Z,1014.68
2018-06-23T06:14:32.838Z,1014.71
2018-06-23T06:15:32.839Z,1014.66
2018-06-23T06:16:32.835Z,1014.69
2018-06-23T06:17:32.834Z,1014.62
2018-06-23T06:18:32.837Z,1014.68
2018-06-23T06:19:32.836Z,1014.69
2018-06-23T06:20:32.832Z,1014.71
2018-06-23T06:21:32.831Z,1014.77
2018-06-23T06:22:32.827Z,1014.74
2018-06-23T06:23:32.827Z,1014.70
2018-06-23T06:24:32.823Z,1014.70
2018-06-23T06:25:32.830Z,1014.72
2018-06-23T06:26:32.820Z,1014.75
2018-06-23T06:27:32.820Z,1014.75
2018-06-23T06:28:32.817Z,1014.72
2018-06-23T06:29:32.878Z,1014.84
2018-06-23T06:30:32.816Z,1014.77
2018-06-23T06:31:32.814Z,1014.79
2018-06-23T06:32:32.812Z,1014.66
2018-06-23T06:33:32.810Z,1014.80
2018-06-23T06:34:32.809Z,1014.76
2018-06-23T06:35:32.837Z,1014.73
2018-06-23T06:36:32.807Z,1014.69
2018-06-23T06:37:32.805Z,1014.74
2018-06-23T06:38:32.809Z,1014.73
2018-06-23T06:39:32.803Z,1014.77
2018-06-23T06:40:32.800Z,1014.79
2018-06-23T06:41:32.799Z,1014.85
2018-06-23T06:42:32.797Z,1014.90
2018-06-23T06:43:32.796Z,1014.88
2018-06-23T06:44:32.818Z,1014.94
2018-06-23T06:45:32.793Z,1014.92
2018-06-23T06:46:32.789Z,1014.95
2018-06-23T06:47:32.789Z,1014.94
2018-06-23T06:48:32.787Z,1014.97
2018-06-23T06:49:32.788Z,1014.95
2018-06-23T06:50:32.784Z,1014.94
2018-06-23T06:51:32.786Z,1014.93
2018-06-23T06:52:32.783Z,1014.97
2018-06-23T06:53:32.779Z,1014.96
2018-06-23T06:54:32.778Z,1015.00
2018-06-23T06:55:32.777Z,1015.07
2018-06-23T06:56:32.774Z,1014.94
2018-06-23T06:57:32.775Z,1015.00
2018-06-23T06:58:32.774Z,1014.93
2018-06-23T06:59:32.770Z,1014.91
2018-06-23T07:00:32.770Z,1014.95
2018-06-23T07:01:32.766Z,1014.97
2018-06-23T07:02:32.764Z,1014.95
2018-06-23T07:03:32.819Z,1014.92
2018-06-23T07:04:32.765Z,1014.98
2018-06-23T07:05:32.760Z,1015.00
2018-06-23T07:06:32.756Z,1014.99
2018-06-23T07:07:32.757Z,1015.00
2018-06-23T07:08:32.754Z,1014.95
2018-06-23T07:09:32.753Z,1014.88
2018-06-23T07:10:32.754Z,1014.93
2018-06-23T07:11:32.758Z,1014.95
2018-06-23T07:12:32.749Z,1014.93
2018-06-23T07:13:32.751Z,1014.91
2018-06-23T07:14:32.754Z,1014.88
2018-06-23T07:15:32.785Z,1014.94
2018-06-23T07:16:32.744Z,1014.95
2018-06-23T07:17:32.774Z,1014.95
2018-06-23T07:18:32.742Z,1014.95
2018-06-23T07:19:32.748Z,1014.95
2018-06-23T07:20:32.738Z,1014.89
2018-06-23T07:21:32.739Z,1014.96
2018-06-23T07:22:32.737Z,1014.95
2018-06-23T07:23:32.767Z,1015.01
2018-06-23T07:24:32.734Z,1014.99
2018-06-23T07:25:32.734Z,1014.92
2018-06-23T07:26:32.733Z,1014.89
2018-06-23T07:27:32.730Z,1014.90
2018-06-23T07:28:32.727Z,1014.87
2018-06-23T07:29:32.728Z,1014.79
2018-06-23T07:30:32.727Z,1014.84
2018-06-23T07:31:32.721Z,1014.83
2018-06-23T07:32:32.729Z,1014.87
2018-06-23T07:33:32.723Z,1014.87
2018-06-23T07:34:32.920Z,1014.93
2018-06-23T07:35:32.726Z,1014.85
2018-06-23T07:36:32.719Z,1014.91
2018-06-23T07:37:32.718Z,1014.82
2018-06-23T07:38:32.719Z,1014.82
2018-06-23T07:39:32.716Z,1014.81
2018-06-23T07:40:32.716Z,1014.78
2018-06-23T07:41:32.717Z,1014.78
2018-06-23T07:42:32.712Z,1014.77
2018-06-23T07:43:32.763Z,1014.81
2018-06-23T07:44:32.712Z,1014.78
2018-06-23T07:45:32.726Z,1014.77
2018-06-23T07:46:32.757Z,1014.73
2018-06-23T07:47:32.706Z,1014.73
2018-06-23T07:48:32.727Z,1014.78
2018-06-23T07:49:32.707Z,1014.76
2018-06-23T07:50:32.703Z,1014.69
2018-06-23T07:51:32.702Z,1014.70
2018-06-23T07:52:32.702Z,1014.72
2018-06-23T07:53:32.699Z,1014.74
2018-06-23T07:54:32.700Z,1014.72
2018-06-23T07:55:32.697Z,1014.68
2018-06-23T07:56:32.696Z,1014.69
2018-06-23T07:57:32.695Z,1014.65
2018-06-23T07:58:32.694Z,1014.61
2018-06-23T07:59:32.697Z,1014.66
2018-06-23T08:00:32.693Z,1014.70
2018-06-23T08:01:32.732Z,1014.64
2018-06-23T08:02:32.691Z,1014.66
2018-06-23T08:03:32.694Z,1014.65
2018-06-23T08:04:32.689Z,1014.66
2018-06-23T08:05:32.688Z,1014.66
2018-06-23T08:06:32.691Z,1014.68
2018-06-23T08:07:32.687Z,1014.66
2018-06-23T08:08:32.681Z,1014.72
2018-06-23T08:09:32.688Z,1014.72
2018-06-23T08:10:32.688Z,1014.75
2018-06-23T08:11:32.684Z,1014.73
2018-06-23T08:12:32.682Z,1014.75
2018-06-23T08:13:32.681Z,1014.70
2018-06-23T08:14:32.686Z,1014.69
2018-06-23T08:15:32.687Z,1014.66
2018-06-23T08:16:32.677Z,1014.67
2018-06-23T08:17:32.679Z,1014.69
2018-06-23T08:18:32.691Z,1014.74
2018-06-23T08:19:32.677Z,1014.68
2018-06-23T08:20:32.676Z,1014.73
2018-06-23T08:21:32.676Z,1014.73
2018-06-23T08:22:32.675Z,1014.74
2018-06-23T08:23:32.676Z,1014.76
2018-06-23T08:24:32.672Z,1014.66
2018-06-23T08:25:32.670Z,1014.69
2018-06-23T08:26:32.762Z,1014.62
2018-06-23T08:27:32.670Z,1014.60
2018-06-23T08:28:32.670Z,1014.61
2018-06-23T08:29:32.668Z,1014.72
2018-06-23T08:30:32.668Z,1014.69
2018-06-23T08:31:32.666Z,1014.66
2018-06-23T08:32:32.664Z,1014.70
2018-06-23T08:33:32.666Z,1014.70
2018-06-23T08:34:32.668Z,1014.71
2018-06-23T08:35:32.664Z,1014.68
2018-06-23T08:36:32.662Z,1014.71
2018-06-23T08:37:32.662Z,1014.74
2018-06-23T08:38:32.657Z,1014.76
2018-06-23T08:39:32.662Z,1014.76
2018-06-23T08:40:32.660Z,1014.75
2018-06-23T08:41:32.661Z,1014.68
2018-06-23T08:42:32.660Z,1014.68
2018-06-23T08:43:32.675Z,1014.67
2018-06-23T08:44:32.659Z,1014.69
2018-06-23T08:45:32.660Z,1014.62
2018-06-23T08:46:32.659Z,1014.60
2018-06-23T08:47:32.660Z,1014.60
2018-06-23T08:48:32.662Z,1014.60
2018-06-23T08:49:32.660Z,1014.67
2018-06-23T08:50:32.662Z,1014.68
2018-06-23T08:51:32.660Z,1014.61
2018-06-23T08:52:32.659Z,1014.65
2018-06-23T08:53:32.659Z,1014.65
2018-06-23T08:54:32.658Z,1014.61
2018-06-23T08:55:32.660Z,1014.63
2018-06-23T08:56:32.660Z,1014.60
2018-06-23T08:57:32.660Z,1014.62
2018-06-23T08:58:32.660Z,1014.56
2018-06-23T08:59:32.660Z,1014.62
2018-06-23T09:00:32.662Z,1014.60
2018-06-23T09:01:32.660Z,1014.57
2018-06-23T09:02:32.666Z,1014.55
2018-06-23T09:03:32.667Z,1014.59
2018-06-23T09:04:32.661Z,1014.62
2018-06-23T09:05:32.662Z,1014.59
2018-06-23T09:06:32.662Z,1014.58
2018-06-23T09:07:32.666Z,1014.58
2018-06-23T09:08:32.664Z,1014.57
2018-06-23T09:09:32.673Z,1014.57
2018-06-23T09:10:32.665Z,1014.58
2018-06-23T09:11:32.665Z,1014.62
2018-06-23T09:12:32.664Z,1014.59
2018-06-23T09:13:32.678Z,1014.62
2018-06-23T09:14:32.674Z,1014.57
2018-06-23T09:15:32.670Z,1014.58
2018-06-23T09:16:32.668Z,1014.56
2018-06-23T09:17:32.668Z,1014.52
2018-06-23T09:18:32.670Z,1014.54
2018-06-23T09:19:32.688Z,1014.58
2018-06-23T09:20:32.671Z,1014.57
2018-06-23T09:21:32.671Z,1014.54
2018-06-23T09:22:32.687Z,1014.47
2018-06-23T09:23:32.675Z,1014.44
2018-06-23T09:24:32.677Z,1014.43
2018-06-23T09:25:32.681Z,1014.48
2018-06-23T09:26:32.674Z,1014.47
2018-06-23T09:27:32.678Z,1014.54
2018-06-23T09:28:32.679Z,1014.47
2018-06-23T09:29:32.681Z,1014.50
2018-06-23T09:30:32.683Z,1014.56
2018-06-23T09:31:32.683Z,1014.51
2018-06-23T09:32:32.745Z,1014.51
2018-06-23T09:33:32.690Z,1014.48
2018-06-23T09:34:32.735Z,1014.53
2018-06-23T09:35:32.688Z,1014.53
2018-06-23T09:36:32.692Z,1014.55
2018-06-23T09:37:32.694Z,1014.51
2018-06-23T09:38:32.692Z,1014.46
2018-06-23T09:39:32.692Z,1014.43
2018-06-23T09:40:32.692Z,1014.45
2018-06-23T09:41:32.692Z,1014.45
2018-06-23T09:42:32.695Z,1014.40
2018-06-23T09:43:32.694Z,1014.42
2018-06-23T09:44:32.690Z,1014.45
2018-06-23T09:45:32.693Z,1014.48
2018-06-23T09:46:32.695Z,1014.48
2018-06-23T09:47:32.698Z,1014.55
2018-06-23T09:48:32.697Z,1014.55
2018-06-23T09:49:32.696Z,1014.53
2018-06-23T09:50:32.697Z,1014.53
2018-06-23T09:51:32.703Z,1014.54
2018-06-23T09:52:32.699Z,1014.52
2018-06-23T09:53:32.699Z,1014.45
2018-06-23T09:54:32.702Z,1014.47
2018-06-23T09:55:32.708Z,1014.45
2018-06-23T09:56:32.705Z,1014.44
2018-06-23T09:57:32.701Z,1014.45
2018-06-23T09:58:32.700Z,1014.44
2018-06-23T09:59:32.704Z,1014.45
2018-06-23T10:00:32.706Z,1014.40
2018-06-23T10:01:32.702Z,1014.43
2018-06-23T10:02:32.704Z,1014.45
2018-06-23T10:03:32.708Z,1014.35
2018-06-23T10:04:32.708Z,1014.30
2018-06-23T10:05:32.710Z,1014.37
2018-06-23T10:06:32.712Z,1014.39
2018-06-23T10:07:32.713Z,1014.35
2018-06-23T10:08:32.769Z,1014.33
2018-06-23T10:09:32.712Z,1014.23
2018-06-23T10:10:32.715Z,1014.32
2018-06-23T10:11:32.718Z,1014.32
2018-06-23T10:12:32.722Z,1014.35
2018-06-23T10:13:32.717Z,1014.32
2018-06-23T10:14:32.721Z,1014.35
2018-06-23T10:15:32.793Z,1014.35
2018-06-23T10:16:32.727Z,1014.29
2018-06-23T10:17:32.725Z,1014.22
2018-06-23T10:18:32.728Z,1014.20
2018-06-23T10:19:32.729Z,1014.19
2018-06-23T10:20:32.728Z,1014.27
2018-06-23T10:21:32.775Z,1014.27
2018-06-23T10:22:32.736Z,1014.27
2018-06-23T10:23:32.736Z,1014.25
2018-06-23T10:24:32.800Z,1014.28
2018-06-23T10:25:32.742Z,1014.27
2018-06-23T10:26:32.740Z,1014.30
2018-06-23T10:27:32.744Z,1014.28
2018-06-23T10:28:32.742Z,1014.32
2018-06-23T10:29:32.746Z,1014.31
2018-06-23T10:30:32.744Z,1014.37
2018-06-23T10:31:32.746Z,1014.37
2018-06-23T10:32:32.751Z,1014.38
2018-06-23T10:33:32.750Z,1014.35
2018-06-23T10:34:32.750Z,1014.32
2018-06-23T10:35:32.755Z,1014.30
2018-06-23T10:36:32.754Z,1014.29
2018-06-23T10:37:32.757Z,1014.26
2018-06-23T10:38:32.932Z,1014.24
2018-06-23T10:39:32.759Z,1014.22
2018-06-23T10:40:32.762Z,1014.27
2018-06-23T10:41:32.760Z,1014.24
2018-06-23T10:42:32.762Z,1014.25
2018-06-23T10:43:32.767Z,1014.24
2018-06-23T10:44:32.768Z,1014.19
2018-06-23T10:45:32.767Z,1014.22
2018-06-23T10:46:32.774Z,1014.20
2018-06-23T10:47:32.772Z,1014.22
2018-06-23T10:48:32.773Z,1014.20
2018-06-23T10:49:32.786Z,1014.20
2018-06-23T10:50:32.777Z,1014.19
2018-06-23T10:51:32.778Z,1014.23
2018-06-23T10:52:32.781Z,1014.30
2018-06-23T10:53:32.784Z,1014.11
2018-06-23T10:54:32.784Z,1014.25
2018-06-23T10:55:32.784Z,1014.20
2018-06-23T10:56:32.787Z,1014.23
2018-06-23T10:57:32.789Z,1014.18
2018-06-23T10:58:32.789Z,1014.18
2018-06-23T10:59:32.791Z,1014.23
2018-06-23T11:00:32.793Z,1014.27
2018-06-23T11:01:32.792Z,1014.26
2018-06-23T11:02:32.797Z,1014.24
2018-06-23T11:03:32.798Z,1014.23
2018-06-23T11:04:32.809Z,1014.29
2018-06-23T11:05:32.805Z,1014.30
2018-06-23T11:06:32.802Z,1014.33
2018-06-23T11:07:32.802Z,1014.32
2018-06-23T11:08:32.804Z,1014.29
2018-06-23T11:09:32.805Z,1014.33
2018-06-23T11:10:32.808Z,1014.32
2018-06-23T11:11:32.814Z,1014.31
2018-06-23T11:12:32.809Z,1014.28
2018-06-23T11:13:32.814Z,1014.29
2018-06-23T11:14:32.812Z,1014.29
2018-06-23T11:15:32.813Z,1014.26
2018-06-23T11:16:32.815Z,1014.27
2018-06-23T11:17:32.817Z,1014.29
2018-06-23T11:18:32.819Z,1014.23
2018-06-23T11:19:32.817Z,1014.17
2018-06-23T11:20:32.821Z,1014.11
2018-06-23T11:21:32.827Z,1014.16
2018-06-23T11:22:32.825Z,1014.08
2018-06-23T11:23:32.826Z,1014.16
2018-06-23T11:24:32.925Z,1014.15
2018-06-23T11:25:32.828Z,1014.13
2018-06-23T11:26:32.830Z,1014.15
2018-06-23T11:27:32.832Z,1014.16
2018-06-23T11:28:32.834Z,1014.18
2018-06-23T11:29:32.835Z,1014.26
2018-06-23T11:30:32.846Z,1014.27
2018-06-23T11:31:32.841Z,1014.26
2018-06-23T11:32:32.840Z,1014.25
2018-06-23T11:33:32.842Z,1014.24
2018-06-23T11:34:32.844Z,1014.20
2018-06-23T11:35:32.844Z,1014.13
2018-06-23T11:36:32.844Z,1014.22
2018-06-23T11:37:32.845Z,1014.22
2018-06-23T11:38:32.847Z,1014.19
2018-06-23T11:39:32.847Z,1014.06
2018-06-23T11:40:32.850Z,1014.16
2018-06-23T11:41:32.852Z,1014.15
2018-06-23T11:42:32.852Z,1014.09
2018-06-23T11:43:32.858Z,1014.32
2018-06-23T11:44:32.854Z,1014.21
2018-06-23T11:45:32.859Z,1014.16
2018-06-23T11:46:32.917Z,1014.18
2018-06-23T11:47:32.859Z,1014.24
2018-06-23T11:48:32.861Z,1014.19
2018-06-23T11:49:32.862Z,1014.21
2018-06-23T11:50:32.864Z,1014.28
2018-06-23T11:51:32.864Z,1014.20
2018-06-23T11:52:32.870Z,1014.05
2018-06-23T11:53:32.870Z,1014.17
2018-06-23T11:54:32.870Z,1014.13
2018-06-23T11:55:32.873Z,1014.19
2018-06-23T11:56:32.872Z,1014.11
2018-06-23T11:57:32.874Z,1014.07
2018-06-23T11:58:32.874Z,1014.15
2018-06-23T11:59:32.876Z,1014.14
2018-06-23T12:00:32.877Z,1014.11
2018-06-23T12:01:32.881Z,1014.04
2018-06-23T12:02:32.881Z,1014.08
2018-06-23T12:03:32.881Z,1014.09
2018-06-23T12:04:32.889Z,1014.12
2018-06-23T12:05:32.885Z,1014.18